createdAt,value
2023-04-16T00:02:35.749Z,100967.59
2023-04-16T00:07:37.571Z,100968.47
2023-04-16T00:12:41.158Z,100977.28
2023-04-16T00:17:43.419Z,100983.50
2023-04-16T00:22:45.540Z,100979.97
2023-04-16T00:27:48.599Z,100979.94
2023-04-16T00:32:50.996Z,100981.75
2023-04-16T00:37:53.099Z,100971.25
2023-04-16T00:42:56.458Z,100981.84
2023-04-16T00:48:00.552Z,100980.97
2023-04-16T00:53:02.848Z,100987.13
2023-04-16T00:58:06.464Z,100979.19
2023-04-16T01:03:09.561Z,100985.31
2023-04-16T01:08:16.979Z,100993.31
2023-04-16T01:13:21.304Z,100995.06
2023-04-16T01:18:24.287Z,101004.81
2023-04-16T01:23:27.338Z,101010.97
2023-04-16T01:28:29.690Z,101013.63
2023-04-16T01:33:34.530Z,101015.41
2023-04-16T01:38:37.824Z,101015.41
2023-04-16T01:43:40.331Z,101023.38
2023-04-16T01:48:42.720Z,101024.28
2023-04-16T01:53:46.159Z,101023.38
2023-04-16T01:58:48.318Z,101026.91
2023-04-16T02:03:51.791Z,101020.72
2023-04-16T02:08:55.132Z,101033.09
2023-04-16T02:13:57.328Z,101038.38
2023-04-16T02:18:59.436Z,101037.50
2023-04-16T02:24:02.866Z,101037.50
2023-04-16T02:29:04.872Z,101041.94
2023-04-16T02:34:07.176Z,101034.88
2023-04-16T02:39:11.432Z,101041.91
2023-04-16T02:44:16.744Z,101047.22
2023-04-16T02:49:18.449Z,101049.03
2023-04-16T02:54:21.879Z,101053.41
2023-04-16T02:59:24.058Z,101044.59
2023-04-16T03:04:26.686Z,101053.41
2023-04-16T03:09:30.357Z,101058.72
2023-04-16T03:14:32.628Z,101064.03
2023-04-16T03:19:34.947Z,101071.97
2023-04-16T03:24:38.424Z,101073.72
2023-04-16T03:29:40.563Z,101071.06
2023-04-16T03:34:42.533Z,101070.19
2023-04-16T03:39:46.016Z,101071.94
2023-04-16T03:44:47.914Z,101071.97
2023-04-16T03:49:50.063Z,101071.94
2023-04-16T03:54:53.170Z,101092.22
2023-04-16T03:59:55.266Z,101083.34
2023-04-16T04:04:57.722Z,101092.16
2023-04-16T04:10:01.529Z,101108.03
2023-04-16T04:15:03.624Z,101104.50
2023-04-16T04:20:06.608Z,101115.09
2023-04-16T04:25:10.765Z,101123.00
2023-04-16T04:30:12.916Z,101124.78
2023-04-16T04:35:17.520Z,101128.28
2023-04-16T04:40:21.088Z,101133.63
2023-04-16T04:45:23.612Z,101131.84
2023-04-16T04:50:25.791Z,101141.59
2023-04-16T04:55:29.262Z,101144.22
2023-04-16T05:00:31.763Z,101148.59
2023-04-16T05:05:33.863Z,101155.63
2023-04-16T05:10:37.545Z,101164.44
2023-04-16T05:15:39.595Z,101156.50
2023-04-16T05:20:41.724Z,101168.84
2023-04-16T05:25:45.027Z,101170.63
2023-04-16T05:30:47.078Z,101173.25
2023-04-16T05:35:49.540Z,101177.66
2023-04-16T05:40:53.284Z,101185.66
2023-04-16T05:45:55.149Z,101190.03
2023-04-16T05:50:57.289Z,101192.66
2023-04-16T05:56:00.386Z,101191.81
2023-04-16T06:01:02.568Z,101202.41
2023-04-16T06:06:05.001Z,101211.25
2023-04-16T06:11:08.509Z,101202.44
2023-04-16T06:16:10.681Z,101220.09
2023-04-16T06:21:13.013Z,101224.56
2023-04-16T06:26:16.586Z,101223.66
2023-04-16T06:31:18.550Z,101224.53
2023-04-16T06:36:21.117Z,101232.50
2023-04-16T06:41:24.596Z,101236.06
2023-04-16T06:46:26.855Z,101236.91
2023-04-16T06:51:28.642Z,101240.50
2023-04-16T06:56:32.243Z,101235.22
2023-04-16T07:01:36.191Z,101249.34
2023-04-16T07:06:38.282Z,101248.47
2023-04-16T07:11:42.302Z,101251.09
2023-04-16T07:16:44.437Z,101259.94
2023-04-16T07:21:46.800Z,101262.56
2023-04-16T07:26:50.229Z,101263.50
2023-04-16T07:31:52.585Z,101273.16
2023-04-16T07:36:55.052Z,101273.22
2023-04-16T07:41:58.582Z,101286.44
2023-04-16T07:47:01.327Z,101279.44
2023-04-16T07:52:04.722Z,101289.97
2023-04-16T07:57:07.932Z,101296.16
2023-04-16T08:02:13.044Z,101302.38
2023-04-16T08:07:14.838Z,101297.94
2023-04-16T08:12:18.431Z,101306.81
2023-04-16T08:17:20.470Z,101306.81
2023-04-16T08:22:22.290Z,101303.31
2023-04-16T08:27:28.455Z,101326.28
2023-04-16T08:32:30.293Z,101332.47
2023-04-16T08:37:32.290Z,101328.06
2023-04-16T08:42:43.952Z,101337.78
2023-04-16T08:47:47.050Z,101345.72
2023-04-16T08:52:51.740Z,101351.03
2023-04-16T08:57:59.510Z,101352.81
2023-04-16T09:03:02.949Z,101351.91
2023-04-16T09:08:05.677Z,101351.03
2023-04-16T09:13:10.405Z,101361.59
2023-04-16T09:18:12.474Z,101368.63
2023-04-16T09:23:14.205Z,101374.00
2023-04-16T09:28:41.861Z,101373.97
2023-04-16T09:34:00.670Z,101381.97
2023-04-16T09:39:03.893Z,101386.38
2023-04-16T09:44:07.169Z,101386.34
2023-04-16T09:49:10.075Z,101396.09
2023-04-16T09:54:12.526Z,101397.00
2023-04-16T09:59:19.063Z,101393.47
2023-04-16T10:04:20.863Z,101394.34
2023-04-16T10:09:22.800Z,101400.53
2023-04-16T10:14:25.930Z,101400.56
2023-04-16T10:19:28.500Z,101400.56
2023-04-16T10:24:32.291Z,101414.69
2023-04-16T10:29:36.942Z,101417.34
2023-04-16T10:34:40.153Z,101417.38
2023-04-16T10:39:42.167Z,101411.19
2023-04-16T10:44:46.159Z,101418.25
2023-04-16T10:49:48.018Z,101421.75
2023-04-16T10:54:52.500Z,101424.38
2023-04-16T10:59:56.133Z,101427.09
2023-04-16T11:04:58.013Z,101431.50
2023-04-16T11:10:00.918Z,101420.91
2023-04-16T11:15:06.214Z,101433.28
2023-04-16T11:20:18.900Z,101433.31
2023-04-16T11:25:24.159Z,101439.47
2023-04-16T11:30:32.022Z,101447.41
2023-04-16T11:35:33.915Z,101441.28
2023-04-16T11:40:36.144Z,101451.84
2023-04-16T11:45:39.555Z,101444.81
2023-04-16T11:50:41.564Z,101452.75
2023-04-16T11:55:44.530Z,101457.16
2023-04-16T12:00:48.472Z,101453.63
2023-04-16T12:05:50.647Z,101460.69
2023-04-16T12:10:54.755Z,101463.38
2023-04-16T12:15:58.030Z,101458.94
2023-04-16T12:21:05.085Z,101463.31
2023-04-16T12:26:08.051Z,101467.78
2023-04-16T12:31:14.182Z,101469.50
2023-04-16T12:36:20.004Z,101466.88
2023-04-16T12:41:22.428Z,101465.97
2023-04-16T12:46:26.005Z,101478.41
2023-04-16T12:51:28.016Z,101478.41
2023-04-16T12:56:30.826Z,101469.56
2023-04-16T13:01:33.950Z,101476.66
2023-04-16T13:06:36.095Z,101485.50
2023-04-16T13:11:37.830Z,101483.72
2023-04-16T13:16:40.955Z,101481.94
2023-04-16T13:21:42.684Z,101489.03
2023-04-16T13:26:45.021Z,101486.41
2023-04-16T13:31:49.131Z,101486.38
2023-04-16T13:36:51.275Z,101497.84
2023-04-16T13:41:53.316Z,101489.84
2023-04-16T13:46:56.927Z,101495.16
2023-04-16T13:51:58.975Z,101492.53
2023-04-16T13:57:01.177Z,101502.28
2023-04-16T14:02:04.500Z,101499.66
2023-04-16T14:07:06.488Z,101497.00
2023-04-16T14:12:08.678Z,101496.09
2023-04-16T14:17:12.288Z,101495.19
2023-04-16T14:22:14.273Z,101500.47
2023-04-16T14:27:16.245Z,101495.13
2023-04-16T14:32:20.332Z,101504.00
2023-04-16T14:37:22.242Z,101497.78
2023-04-16T14:42:24.298Z,101503.09
2023-04-16T14:47:27.531Z,101500.41
2023-04-16T14:52:30.837Z,101505.81
2023-04-16T14:57:33.368Z,101503.97
2023-04-16T15:02:36.814Z,101510.22
2023-04-16T15:07:38.912Z,101516.44
2023-04-16T15:12:40.969Z,101513.78
2023-04-16T15:17:44.661Z,101513.78
2023-04-16T15:22:46.732Z,101512.00
2023-04-16T15:27:48.459Z,101524.38
2023-04-16T15:32:51.719Z,101520.78
2023-04-16T15:37:53.437Z,101528.75
2023-04-16T15:42:55.921Z,101524.31
2023-04-16T15:47:59.767Z,101529.66
2023-04-16T15:53:01.571Z,101533.19
2023-04-16T15:58:06.395Z,101538.50
2023-04-16T16:03:09.922Z,101538.53
2023-04-16T16:08:12.681Z,101548.28
2023-04-16T16:13:14.797Z,101548.28
2023-04-16T16:18:18.298Z,101546.53
2023-04-16T16:23:20.027Z,101550.09
2023-04-16T16:28:22.188Z,101558.97
2023-04-16T16:33:25.741Z,101553.66
2023-04-16T16:38:27.771Z,101552.78
2023-04-16T16:43:29.913Z,101561.63
2023-04-16T16:48:33.554Z,101566.03
2023-04-16T16:53:36.074Z,101567.78
2023-04-16T16:58:38.620Z,101566.91
2023-04-16T17:03:42.057Z,101590.81
2023-04-16T17:08:43.880Z,101589.91
2023-04-16T17:13:46.233Z,101600.41
2023-04-16T17:18:51.816Z,101604.75
2023-04-16T17:23:53.564Z,101602.00
2023-04-16T17:28:56.135Z,101598.41
2023-04-16T17:33:59.256Z,101606.38
2023-04-16T17:39:01.272Z,101608.19
2023-04-16T17:44:03.798Z,101608.19
2023-04-16T17:49:08.338Z,101626.69
2023-04-16T17:54:10.694Z,101633.72
2023-04-16T17:59:12.690Z,101631.88
2023-04-16T18:04:17.433Z,101635.31
2023-04-16T18:09:20.020Z,101652.97
2023-04-16T18:14:22.030Z,101660.88
2023-04-16T18:19:25.959Z,101660.88
2023-04-16T18:24:28.008Z,101670.63
2023-04-16T18:29:30.329Z,101666.97
2023-04-16T18:34:36.687Z,101684.69
2023-04-16T18:39:38.899Z,101689.00
2023-04-16T18:44:41.788Z,101694.22
2023-04-16T18:49:45.082Z,101689.91
2023-04-16T18:54:47.138Z,101696.91
2023-04-16T18:59:49.347Z,101707.53
2023-04-16T19:04:53.027Z,101711.88
2023-04-16T19:09:54.828Z,101708.34
2023-04-16T19:14:57.272Z,101715.31
2023-04-16T19:20:01.034Z,101711.00
2023-04-16T19:25:03.142Z,101714.41
2023-04-16T19:30:06.680Z,101716.16
2023-04-16T19:35:11.823Z,101715.25
2023-04-16T19:40:14.008Z,101724.84
2023-04-16T19:45:16.711Z,101724.81
2023-04-16T19:50:19.997Z,101723.03
2023-04-16T19:55:21.783Z,101717.81
2023-04-16T20:00:23.876Z,101728.28
2023-04-16T20:05:27.146Z,101733.50
2023-04-16T20:10:28.878Z,101723.69
2023-04-16T20:15:30.596Z,101731.66
2023-04-16T20:20:35.765Z,101735.09
2023-04-16T20:25:40.893Z,101738.63
2023-04-16T20:30:42.774Z,101735.88
2023-04-16T20:35:47.420Z,101736.66
2023-04-16T20:40:49.689Z,101738.44
2023-04-16T20:45:52.225Z,101745.44
2023-04-16T20:50:59.382Z,101747.25
2023-04-16T20:56:01.104Z,101747.25
2023-04-16T21:01:02.990Z,101749.75
2023-04-16T21:06:06.311Z,101756.78
2023-04-16T21:11:08.486Z,101754.09
2023-04-16T21:16:10.781Z,101749.59
2023-04-16T21:21:13.874Z,101757.50
2023-04-16T21:26:16.141Z,101755.63
2023-04-16T21:31:17.917Z,101755.59
2023-04-16T21:36:21.043Z,101753.69
2023-04-16T21:41:23.285Z,101752.75
2023-04-16T21:46:25.269Z,101760.47
2023-04-16T21:51:28.503Z,101760.41
2023-04-16T21:56:30.648Z,101761.28
2023-04-16T22:01:32.905Z,101762.06
2023-04-16T22:06:36.054Z,101763.72
2023-04-16T22:11:37.988Z,101760.16
2023-04-16T22:16:40.272Z,101766.28
2023-04-16T22:21:43.430Z,101769.78
2023-04-16T22:26:45.416Z,101763.56
2023-04-16T22:31:47.189Z,101771.47
2023-04-16T22:36:50.628Z,101774.03
2023-04-16T22:41:52.360Z,101774.03
2023-04-16T22:46:54.729Z,101766.06
2023-04-16T22:51:57.857Z,101770.50
2023-04-16T22:57:00.095Z,101772.25
2023-04-16T23:02:02.075Z,101770.50
2023-04-16T23:07:05.664Z,101772.22
2023-04-16T23:12:08.117Z,101766.94
2023-04-16T23:17:09.829Z,101777.56
2023-04-16T23:22:12.933Z,101773.09
2023-04-16T23:27:14.642Z,101781.13
2023-04-16T23:32:16.390Z,101781.94
2023-04-16T23:37:19.735Z,101775.69
2023-04-16T23:42:21.559Z,101776.53
2023-04-16T23:47:23.814Z,101777.41
2023-04-16T23:52:27.386Z,101773.91
2023-04-16T23:57:29.312Z,101771.19
